Airfield :
LOGIN :

Register | Disclaimer

   EN    FR    IT 

 










Legend :    VFR   Marginal VFR   IFR   Intensive IFR   Very Intensive IFR
Visi :
Ceiling :
>= 8 km
>= 3000ft
5 to 8 km
1000 to 3000 ft
1500m to 5 km
500 to 1000 ft
800 to 1500m
200 to 500 ft
< 800m
< 200 ft
Symbols :   Thunderstorms  Fog  Heavy snow  Heavy precipitations  Wind > 20 kt
SIGMETs :     Misc.  Thunderstorms  Icing  Turbulence  Mountain Waves  Volcanic Ashes






- Airport Elevation : 194 ft


EBCV - Chièvres

CURRENT METAR :
  • 190525Z AUTO VRB01KT 9999 SCT150/// BKN220/// 19/17 Q1018 BLU

EXPIRED METARs :
  • 190455Z AUTO VRB01KT 9999 FEW100/// BKN220/// 18/16 Q1018 BLU
  • 190425Z AUTO VRB01KT 9999 FEW130/// BKN230/// 18/16 Q1018 BLU
  • 190355Z AUTO VRB01KT 9999 FEW150/// BKN230/// 18/16 Q1018 BLU
  • 190325Z AUTO VRB01KT 9999 FEW150/// BKN210/// 18/16 Q1019 BLU
  • 190255Z AUTO VRB01KT 9999 FEW110/// BKN210/// 18/16 Q1019 BLU
  • 190225Z AUTO VRB01KT 9999 BKN210/// 18/16 Q1019 BLU
  • 190155Z AUTO VRB01KT 9999 BKN190/// 18/17 Q1019 BLU
  • 190125Z AUTO VRB01KT 9999 BKN190/// 18/16 Q1019 BLU
  • 190055Z AUTO VRB01KT 9999 FEW130/// BKN220/// 19/17 Q1019 BLU

TAF TAF EBCV
Valid from the 18 at 19:00 until the 19 at 07:00 UTC


181500Z 1819/1907 VRB03KT 9999 SCT130 SCT210 BY EBWM



MET'MAP, your aeronautical weather chart ! - Copyright ORBIFLY December 2007 - Disclaimer

ORBIFLY MET'MAP TEAM :

Programming & Development : Alexandra Zaïnal
Original concept : Baudouin d'Aumeries
Technical & hardware support : Manuel Goepfert
Assistance : Marc-Olivier Méhu




SOURCES & CREDITS :

   NOAA